Time;durP1;ratioP1;P1;durP2;ratioP2;P2;SDS_P1;SDS_P2;PMS_P1;PMS_P2;Temp;Humidity;BMP_temperature;BMP_pressure;BME280_temperature;BME280_humidity;BME280_pressure;Samples;Min_cycle;Max_cycle;Signal;HPM_P1;HPM_P2
2023/01/26 00:01:13;;;;;;;70.25;38.90;;;;;;;4.37;59.28;102505.81;5106858;28;20067;-63
2023/01/26 00:03:40;;;;;;;70.85;38.17;;;;;;;4.37;59.34;102497.84;5110567;28;20131;-63
2023/01/26 00:06:11;;;;;;;70.82;36.97;;;;;;;4.40;59.03;102491.38;5108517;28;20344;-63
2023/01/26 00:08:39;;;;;;;64.18;35.35;;;;;;;4.38;58.89;102496.84;5105340;28;20054;-63
2023/01/26 00:11:08;;;;;;;67.55;36.25;;;;;;;4.41;58.60;102496.56;5108050;28;20063;-63
2023/01/26 00:13:37;;;;;;;63.88;36.15;;;;;;;4.35;58.65;102478.50;5099227;28;20062;-63
2023/01/26 00:16:07;;;;;;;63.25;35.58;;;;;;;4.40;59.14;102489.56;5103516;28;20126;-63
2023/01/26 00:18:38;;;;;;;62.50;33.60;;;;;;;4.41;58.86;102485.09;5104839;28;20079;-63
2023/01/26 00:21:08;;;;;;;62.42;34.17;;;;;;;4.41;58.57;102480.59;5103981;28;20360;-63
2023/01/26 00:23:36;;;;;;;60.75;35.72;;;;;;;4.43;58.38;102475.97;5097245;28;20044;-63
2023/01/26 00:26:07;;;;;;;61.80;33.42;;;;;;;4.44;59.04;102474.16;5106824;28;20087;-63
2023/01/26 00:28:34;;;;;;;64.38;34.53;;;;;;;4.42;58.93;102473.47;5105014;28;20043;-63
2023/01/26 00:31:03;;;;;;;60.08;32.50;;;;;;;4.41;58.58;102467.28;5103070;28;20050;-63
2023/01/26 00:33:31;;;;;;;65.68;34.95;;;;;;;4.42;58.79;102476.97;5103104;28;20048;-63
2023/01/26 00:36:00;;;;;;;60.63;34.78;;;;;;;4.40;58.70;102464.78;5108411;28;20059;-63
2023/01/26 00:38:28;;;;;;;59.60;35.55;;;;;;;4.41;59.10;102467.28;5102438;28;20052;-63
2023/01/26 00:40:56;;;;;;;61.90;33.63;;;;;;;4.39;59.08;102455.09;5102996;28;20051;-63
2023/01/26 00:43:23;;;;;;;62.33;34.75;;;;;;;4.38;59.24;102459.59;5109627;28;20075;-63
2023/01/26 00:45:51;;;;;;;61.28;34.53;;;;;;;4.35;59.13;102451.88;5099505;28;20058;-63
2023/01/26 00:48:19;;;;;;;58.13;32.45;;;;;;;4.38;59.42;102451.59;5108316;28;20067;-63
2023/01/26 00:50:51;;;;;;;59.92;33.33;;;;;;;4.40;59.50;102451.47;5104711;28;20127;-64
2023/01/26 00:53:20;;;;;;;55.70;32.65;;;;;;;4.38;58.83;102443.63;5104091;28;20214;-63
2023/01/26 00:55:47;;;;;;;60.78;34.00;;;;;;;4.36;59.55;102440.25;5104641;28;20082;-63
2023/01/26 00:58:15;;;;;;;59.08;32.97;;;;;;;4.36;58.95;102432.28;5103224;28;20107;-63
2023/01/26 01:00:43;;;;;;;60.50;33.65;;;;;;;4.35;59.31;102438.59;5101189;28;20072;-63
2023/01/26 01:03:11;;;;;;;58.05;32.38;;;;;;;4.36;59.58;102437.59;5098349;28;20143;-63
2023/01/26 01:05:38;;;;;;;60.63;34.47;;;;;;;4.37;59.44;102439.28;5101699;28;20047;-63
2023/01/26 01:08:06;;;;;;;56.53;32.97;;;;;;;4.36;58.82;102434.94;5115062;28;20053;-63
2023/01/26 01:10:35;;;;;;;54.25;32.10;;;;;;;4.35;59.44;102435.91;5097748;28;20065;-63
2023/01/26 01:13:03;;;;;;;56.78;32.80;;;;;;;4.36;59.75;102431.44;5103138;28;20327;-63
2023/01/26 01:15:31;;;;;;;59.80;33.28;;;;;;;4.34;59.74;102422.75;5094040;28;20073;-63
2023/01/26 01:17:58;;;;;;;57.67;32.25;;;;;;;4.35;59.20;102419.09;5098695;28;20082;-63
2023/01/26 01:20:26;;;;;;;55.03;32.05;;;;;;;4.32;59.16;102424.72;5104139;28;20050;-63
2023/01/26 01:22:54;;;;;;;55.55;31.92;;;;;;;4.32;59.91;102420.22;5102417;28;20048;-63
2023/01/26 01:25:22;;;;;;;54.38;32.03;;;;;;;4.33;59.22;102426.41;5101042;28;20481;-64
2023/01/26 01:27:51;;;;;;;55.55;32.00;;;;;;;4.32;59.94;102422.06;5102825;28;20081;-63
2023/01/26 01:30:18;;;;;;;55.42;31.02;;;;;;;4.30;59.63;102424.84;5093411;28;20150;-63
2023/01/26 01:32:50;;;;;;;56.10;31.98;;;;;;;4.31;59.27;102418.56;5104519;28;20070;-63
2023/01/26 01:35:18;;;;;;;50.85;30.17;;;;;;;4.32;59.37;102408.75;5100902;28;20051;-63
2023/01/26 01:37:45;;;;;;;57.33;31.60;;;;;;;4.32;59.46;102416.72;5103936;28;20496;-63
2023/01/26 01:40:14;;;;;;;49.58;29.98;;;;;;;4.32;60.05;102427.38;5094826;28;20046;-64
2023/01/26 01:42:47;;;;;;;52.05;30.30;;;;;;;4.31;59.23;102423.03;5089403;28;20078;-63
2023/01/26 01:45:42;;;;;;;51.60;30.25;;;;;;;4.30;60.14;102419.53;5098695;28;20075;-63
2023/01/26 01:48:18;;;;;;;48.97;28.45;;;;;;;4.30;59.46;102418.69;5094954;28;20058;-63
2023/01/26 01:50:47;;;;;;;51.38;29.10;;;;;;;4.28;59.78;102424.16;5100893;28;20547;-63
2023/01/26 01:53:23;;;;;;;51.72;29.33;;;;;;;4.30;60.10;102419.53;5100304;28;20040;-63
2023/01/26 01:55:55;;;;;;;48.75;28.58;;;;;;;4.29;59.42;102420.53;5108254;28;20071;-63
2023/01/26 01:58:23;;;;;;;49.28;29.08;;;;;;;4.29;59.50;102420.53;5105241;28;20539;-63
2023/01/26 02:00:53;;;;;;;50.05;29.45;;;;;;;4.30;59.80;102419.53;5105370;28;20071;-63
2023/01/26 02:03:22;;;;;;;48.92;28.20;;;;;;;4.30;60.22;102416.88;5105986;28;20044;-63
2023/01/26 02:05:55;;;;;;;49.42;29.60;;;;;;;4.29;60.16;102409.88;5103170;28;20135;-63
2023/01/26 02:08:35;;;;;;;45.10;26.05;;;;;;;4.30;59.71;102405.38;5100306;28;20071;-63
2023/01/26 02:11:08;;;;;;;51.72;29.63;;;;;;;4.29;59.56;102409.03;5096321;28;20052;-63
2023/01/26 02:13:37;;;;;;;46.88;28.23;;;;;;;4.28;59.87;102408.19;5101349;28;20063;-64
2023/01/26 02:16:06;;;;;;;53.22;28.70;;;;;;;4.25;60.33;102406.66;5098512;28;20116;-63
2023/01/26 02:18:34;;;;;;;48.88;27.48;;;;;;;4.24;59.54;102394.34;5099649;28;20052;-64
2023/01/26 02:21:05;;;;;;;47.63;28.38;;;;;;;4.23;59.75;102397.13;5101875;28;20055;-64
2023/01/26 02:23:50;;;;;;;47.05;27.77;;;;;;;4.28;59.58;102394.06;5095979;28;20035;-64
2023/01/26 02:26:22;;;;;;;47.90;28.90;;;;;;;4.26;59.85;102399.50;5101985;28;20047;-63
2023/01/26 02:28:50;;;;;;;48.15;28.35;;;;;;;4.25;59.60;102398.69;5102675;28;20072;-63
2023/01/26 02:31:19;;;;;;;47.92;28.48;;;;;;;4.25;60.05;102397.84;5099824;28;20048;-63
2023/01/26 02:33:47;;;;;;;47.30;27.17;;;;;;;4.24;60.18;102394.34;5103008;28;20505;-64
2023/01/26 02:36:19;;;;;;;48.35;26.80;;;;;;;4.23;59.91;102395.31;5110366;28;20477;-63
2023/01/26 02:39:15;;;;;;;48.17;29.25;;;;;;;4.24;59.75;102396.16;5101988;28;20062;-63
2023/01/26 02:44:31;;;;;;;47.97;27.60;;;;;;;4.23;59.76;102399.81;5096615;28;20058;-64
2023/01/26 02:46:59;;;;;;;46.53;27.95;;;;;;;4.22;59.90;102393.63;5100053;28;20604;-65
2023/01/26 02:52:12;;;;;;;46.85;27.80;;;;;;;4.21;60.29;102378.66;5100688;28;20044;-63
2023/01/26 02:57:27;;;;;;;44.50;25.98;;;;;;;4.23;60.67;102386.50;5101779;28;20065;-63
2023/01/26 02:59:55;;;;;;;48.55;27.70;;;;;;;4.22;59.94;102382.16;5097700;28;20074;-63
2023/01/26 03:02:23;;;;;;;44.00;26.35;;;;;;;4.23;60.52;102389.16;5105341;28;20162;-63
2023/01/26 03:04:50;;;;;;;44.05;26.40;;;;;;;4.23;60.56;102394.47;5106278;28;20058;-64
2023/01/26 03:07:18;;;;;;;44.30;26.85;;;;;;;4.21;60.14;102389.28;5105909;28;20062;-64
2023/01/26 03:09:46;;;;;;;43.60;25.05;;;;;;;4.21;60.15;102394.63;5106892;28;20112;-63
2023/01/26 03:12:14;;;;;;;41.78;25.67;;;;;;;4.22;60.49;102390.13;5103882;28;20044;-63
2023/01/26 03:14:43;;;;;;;44.00;25.70;;;;;;;4.22;60.46;102380.34;5102656;28;20148;-64
2023/01/26 03:17:11;;;;;;;43.70;24.63;;;;;;;4.21;60.44;102383.13;5103106;28;20048;-63
2023/01/26 03:27:54;;;;;;;46.05;25.50;;;;;;;4.20;60.46;102365.50;5103845;28;20080;-63
2023/01/26 03:30:23;;;;;;;42.97;26.42;;;;;;;4.20;61.19;102370.81;5098151;28;20104;-64
2023/01/26 03:32:51;;;;;;;42.47;24.60;;;;;;;4.19;61.21;102377.13;5097285;28;20052;-63
2023/01/26 03:35:21;;;;;;;43.45;25.63;;;;;;;4.19;60.39;102382.44;5109372;28;20047;-63
2023/01/26 03:37:53;;;;;;;40.95;24.52;;;;;;;4.18;61.12;102376.28;5106069;28;20150;-63
2023/01/26 03:56:56;;;;;;;37.80;23.00;;;;;;;4.18;60.98;102356.81;5111495;28;20056;-64
2023/01/26 03:59:36;;;;;;;37.58;22.88;;;;;;;4.18;60.51;102367.44;5111539;28;20054;-64
2023/01/26 04:10:24;;;;;;;41.72;23.88;;;;;;;4.15;60.82;102351.78;5097947;28;20086;-63
2023/01/26 04:21:28;;;;;;;35.60;21.67;;;;;;;4.15;61.38;102355.28;5102262;28;20120;-63
2023/01/26 04:23:58;;;;;;;35.28;22.15;;;;;;;4.12;61.17;102350.25;5096282;28;20064;-63
2023/01/26 04:26:33;;;;;;;35.95;22.10;;;;;;;4.13;61.74;102357.25;5106145;28;20109;-63
2023/01/26 04:29:02;;;;;;;37.80;21.80;;;;;;;4.14;61.12;102361.59;5101792;28;20048;-63
2023/01/26 04:31:30;;;;;;;39.00;23.20;;;;;;;4.15;61.63;102363.25;5098481;28;20136;-63
2023/01/26 04:34:00;;;;;;;35.45;21.58;;;;;;;4.15;61.84;102373.91;5105212;28;20131;-63
2023/01/26 04:36:28;;;;;;;38.25;22.20;;;;;;;4.15;61.09;102362.41;5104205;28;20044;-63
2023/01/26 04:38:56;;;;;;;37.70;21.70;;;;;;;4.14;61.25;102366.91;5097748;28;20052;-63
2023/01/26 04:41:24;;;;;;;35.03;21.17;;;;;;;4.13;61.67;102364.38;5108806;28;20048;-63
2023/01/26 04:43:52;;;;;;;37.88;21.60;;;;;;;4.14;61.52;102360.75;5106142;28;20161;-63
2023/01/26 04:46:19;;;;;;;34.03;20.17;;;;;;;4.13;61.33;102349.25;5099939;28;20052;-63
2023/01/26 04:48:47;;;;;;;40.28;21.25;;;;;;;4.14;61.96;102347.44;5107056;28;20113;-63
2023/01/26 04:51:18;;;;;;;35.92;20.77;;;;;;;4.14;61.70;102344.78;5101832;28;20079;-63
2023/01/26 04:53:46;;;;;;;35.58;20.90;;;;;;;4.16;61.97;102346.31;5107106;28;20044;-63
2023/01/26 04:56:20;;;;;;;34.30;19.65;;;;;;;4.14;61.33;102356.25;5110513;28;20416;-63
2023/01/26 04:58:48;;;;;;;34.45;20.08;;;;;;;4.15;61.23;102355.28;5098353;28;20040;-63
2023/01/26 05:01:16;;;;;;;34.03;19.65;;;;;;;4.16;61.19;102353.47;5098900;28;20068;-63
2023/01/26 05:03:44;;;;;;;33.83;18.80;;;;;;;4.15;61.69;102349.94;5093822;28;20065;-63
2023/01/26 05:06:12;;;;;;;33.63;20.23;;;;;;;4.17;61.61;102348.00;5103796;28;20051;-63
2023/01/26 05:08:41;;;;;;;33.88;19.92;;;;;;;4.16;61.65;102345.47;5101924;28;20052;-63
2023/01/26 05:11:09;;;;;;;33.67;19.83;;;;;;;4.16;61.56;102350.78;5100859;28;20055;-63
2023/01/26 05:13:38;;;;;;;34.60;19.15;;;;;;;4.14;61.95;102353.59;5104179;28;20054;-63
2023/01/26 05:16:07;;;;;;;35.08;20.38;;;;;;;4.14;61.59;102348.28;5099589;28;20073;-63
2023/01/26 05:18:35;;;;;;;34.33;18.83;;;;;;;4.15;61.82;102344.63;5100833;28;20048;-63
2023/01/26 05:21:03;;;;;;;32.33;19.77;;;;;;;4.13;61.48;102349.25;5103824;28;20135;-63
2023/01/26 05:23:30;;;;;;;32.80;19.23;;;;;;;4.14;61.39;102358.09;5103147;28;20075;-63
2023/01/26 05:25:59;;;;;;;31.23;18.58;;;;;;;4.14;61.29;102350.94;5109083;28;20057;-63
2023/01/26 05:28:27;;;;;;;31.88;17.75;;;;;;;4.15;62.25;102349.94;5102411;28;20070;-64
2023/01/26 05:30:55;;;;;;;30.67;18.05;;;;;;;4.13;61.74;102353.75;5099973;28;20108;-63
2023/01/26 05:33:23;;;;;;;32.03;18.45;;;;;;;4.13;62.09;102359.06;5101309;28;20070;-64
2023/01/26 05:35:52;;;;;;;32.47;18.50;;;;;;;4.11;61.72;102359.19;5098381;28;20070;-64
2023/01/26 05:38:20;;;;;;;32.40;17.40;;;;;;;4.12;62.20;102358.22;5099995;28;20396;-64
2023/01/26 05:40:48;;;;;;;33.30;18.25;;;;;;;4.12;61.93;102362.72;5100387;28;20135;-64
2023/01/26 05:43:17;;;;;;;31.25;17.45;;;;;;;4.12;62.31;102366.19;5102720;28;20086;-64
2023/01/26 05:45:45;;;;;;;31.98;17.67;;;;;;;4.11;61.66;102361.88;5102761;28;20050;-64
2023/01/26 05:48:13;;;;;;;28.20;16.27;;;;;;;4.09;61.93;102358.50;5101433;28;20876;-64
2023/01/26 05:50:40;;;;;;;30.73;17.67;;;;;;;4.09;61.59;102357.66;5101871;28;20131;-63
2023/01/26 05:53:08;;;;;;;29.70;17.30;;;;;;;4.08;62.28;102358.66;5106522;28;20054;-66
2023/01/26 05:55:36;;;;;;;30.17;16.73;;;;;;;4.10;62.45;102367.31;5103408;28;20108;-65
2023/01/26 05:58:03;;;;;;;32.70;17.85;;;;;;;4.09;61.84;102360.31;5103033;28;20059;-64
2023/01/26 06:00:33;;;;;;;27.20;15.43;;;;;;;4.09;62.51;102363.00;5099459;28;20044;-64
2023/01/26 06:03:00;;;;;;;27.88;16.95;;;;;;;4.12;62.64;102371.53;5099105;28;20075;-63
2023/01/26 06:05:28;;;;;;;30.70;16.95;;;;;;;4.23;61.58;102366.03;5103301;28;20625;-61
2023/01/26 06:07:56;;;;;;;27.17;15.85;;;;;;;4.36;61.10;102363.06;5101026;28;20130;-63
2023/01/26 06:10:25;;;;;;;29.63;16.52;;;;;;;4.50;60.50;102359.13;5093798;28;20050;-61
2023/01/26 06:12:52;;;;;;;27.38;15.90;;;;;;;4.64;60.89;102361.31;5103475;28;20166;-63
2023/01/26 06:15:20;;;;;;;27.45;15.70;;;;;;;4.79;60.42;102367.84;5102252;28;20135;-61
2023/01/26 06:17:49;;;;;;;26.83;15.88;;;;;;;4.89;59.69;102351.81;5107404;28;20056;-63
2023/01/26 06:20:17;;;;;;;26.52;14.70;;;;;;;5.14;58.86;102380.44;5101705;28;20099;-61
2023/01/26 06:22:45;;;;;;;28.63;16.20;;;;;;;5.29;58.60;102374.56;4742118;28;10000360;-64
2023/01/26 06:25:13;;;;;;;26.25;15.40;;;;;;;5.46;57.81;102379.91;5099163;28;20067;-63
2023/01/26 06:27:41;;;;;;;28.13;15.88;;;;;;;5.57;57.53;102382.38;5098260;28;20075;-62
2023/01/26 06:30:10;;;;;;;25.52;14.30;;;;;;;5.58;57.69;102385.88;5094625;28;20070;-63
2023/01/26 06:32:38;;;;;;;25.73;14.82;;;;;;;5.50;57.47;102370.63;5086274;28;20051;-65
2023/01/26 06:35:08;;;;;;;25.40;14.88;;;;;;;5.34;58.18;102370.47;5097243;28;20071;-63
2023/01/26 06:37:36;;;;;;;27.08;15.50;;;;;;;5.19;59.07;102369.31;5099544;28;20111;-62
2023/01/26 06:40:05;;;;;;;25.05;14.73;;;;;;;5.03;59.26;102369.13;5094685;28;20075;-61
2023/01/26 06:42:33;;;;;;;26.17;15.55;;;;;;;4.89;59.75;102370.47;5098583;28;20549;-63
2023/01/26 06:45:00;;;;;;;24.75;14.48;;;;;;;4.82;59.82;102378.19;5099586;28;20058;-62
2023/01/26 06:47:28;;;;;;;22.83;13.57;;;;;;;4.77;60.52;102379.63;5088856;28;20151;-62
2023/01/26 06:49:56;;;;;;;26.10;14.68;;;;;;;4.69;60.18;102385.69;5090071;28;20083;-62
2023/01/26 06:52:31;;;;;;;28.35;15.25;;;;;;;4.64;61.12;102387.94;5098558;28;20047;-62
2023/01/26 06:55:00;;;;;;;23.75;14.05;;;;;;;4.58;61.18;102389.34;5093195;28;20484;-62
2023/01/26 06:57:27;;;;;;;24.20;14.13;;;;;;;4.54;60.87;102382.63;5098172;28;20589;-63
2023/01/26 06:59:56;;;;;;;24.65;14.93;;;;;;;4.50;61.53;102391.06;5092361;28;20052;-63
2023/01/26 07:02:24;;;;;;;25.73;14.68;;;;;;;4.46;60.96;102385.19;5099774;28;20052;-62
2023/01/26 07:04:52;;;;;;;27.63;15.43;;;;;;;4.44;61.97;102388.97;5098695;28;20052;-62
2023/01/26 07:07:20;;;;;;;24.95;14.27;;;;;;;4.41;61.24;102389.25;5095552;28;20127;-61
2023/01/26 07:09:49;;;;;;;27.45;14.98;;;;;;;4.37;61.22;102386.03;5096545;28;20059;-61
2023/01/26 07:12:17;;;;;;;24.52;13.38;;;;;;;4.35;61.46;102381.84;5101931;28;20048;-62
2023/01/26 07:14:44;;;;;;;28.42;16.05;;;;;;;4.23;61.98;102382.00;5100167;28;20116;-59
2023/01/26 07:17:12;;;;;;;25.40;14.65;;;;;;;4.20;62.23;102387.63;5101067;28;20135;-59
2023/01/26 07:19:40;;;;;;;29.75;15.05;;;;;;;4.18;62.85;102383.41;5101628;28;20043;-60
2023/01/26 07:22:08;;;;;;;23.92;14.27;;;;;;;4.18;62.51;102386.06;5095016;28;20084;-60
2023/01/26 07:24:35;;;;;;;27.02;14.93;;;;;;;4.16;62.89;102382.72;5088637;28;20059;-59
2023/01/26 07:27:05;;;;;;;27.10;14.55;;;;;;;4.17;62.49;102392.38;5101361;28;20051;-60
2023/01/26 07:29:32;;;;;;;26.35;14.50;;;;;;;4.15;62.54;102392.53;5092759;28;20076;-59
2023/01/26 07:32:00;;;;;;;25.38;14.45;;;;;;;4.15;62.95;102397.00;5102872;28;20191;-59
2023/01/26 07:34:28;;;;;;;25.67;14.50;;;;;;;4.14;62.30;102400.66;5101664;28;20044;-59
2023/01/26 07:36:56;;;;;;;24.88;13.60;;;;;;;4.12;62.69;102403.44;5102954;28;20052;-59
2023/01/26 07:39:23;;;;;;;25.10;13.32;;;;;;;4.11;62.37;102401.78;5100447;28;20079;-59
2023/01/26 07:41:51;;;;;;;26.08;14.50;;;;;;;4.09;63.15;102408.22;5101275;28;20158;-59
2023/01/26 07:44:20;;;;;;;28.77;15.00;;;;;;;4.08;63.14;102402.06;5101446;28;20531;-60
2023/01/26 07:46:48;;;;;;;24.45;13.43;;;;;;;4.06;63.21;102398.69;5093041;28;20111;-59
2023/01/26 07:49:16;;;;;;;21.95;12.77;;;;;;;4.07;62.61;102407.50;5101157;28;20048;-59
2023/01/26 07:51:43;;;;;;;23.92;13.02;;;;;;;4.05;62.94;102407.66;5105177;28;20134;-59
2023/01/26 07:54:12;;;;;;;23.63;13.35;;;;;;;4.05;62.78;102410.31;5105473;28;20079;-60
2023/01/26 07:56:40;;;;;;;23.52;12.95;;;;;;;4.06;63.12;102409.34;5105519;28;20087;-59
2023/01/26 07:59:10;;;;;;;23.63;12.60;;;;;;;4.06;63.29;102417.31;5098369;28;20087;-60
2023/01/26 08:01:39;;;;;;;25.35;13.75;;;;;;;4.08;62.47;102415.34;5103026;28;20055;-59
2023/01/26 08:04:07;;;;;;;22.17;12.93;;;;;;;4.07;62.68;102412.84;5094558;28;20079;-59
2023/01/26 08:06:35;;;;;;;27.50;14.70;;;;;;;4.06;62.99;102414.66;5105857;28;20048;-59
2023/01/26 08:09:04;;;;;;;26.25;13.52;;;;;;;4.08;63.16;102420.69;5095255;28;20070;-59
2023/01/26 08:11:31;;;;;;;26.08;14.18;;;;;;;4.07;62.95;102420.81;5100673;28;20389;-60
2023/01/26 08:13:59;;;;;;;24.52;13.18;;;;;;;4.07;63.36;102423.47;5104983;28;20139;-60
2023/01/26 08:16:27;;;;;;;24.45;13.77;;;;;;;4.07;63.50;102415.50;5104513;28;20422;-60
2023/01/26 08:18:56;;;;;;;22.42;12.85;;;;;;;4.07;63.41;102421.66;5095436;28;20095;-60
2023/01/26 08:21:24;;;;;;;26.10;13.88;;;;;;;4.08;63.54;102427.81;5103832;28;20052;-61
2023/01/26 08:23:52;;;;;;;22.90;13.27;;;;;;;4.06;62.97;102411.16;5104476;28;20086;-60
2023/01/26 08:26:20;;;;;;;22.98;13.40;;;;;;;4.06;63.20;102419.13;5105507;28;20071;-60
2023/01/26 08:28:48;;;;;;;24.33;12.88;;;;;;;4.07;63.33;102424.31;5105579;28;20107;-59
2023/01/26 08:31:19;;;;;;;28.75;13.80;;;;;;;4.06;63.35;102427.97;5100229;28;20059;-60
2023/01/26 08:33:50;;;;;;;24.73;13.55;;;;;;;4.05;63.65;102436.91;5105111;28;20063;-59
2023/01/26 08:36:19;;;;;;;24.92;12.90;;;;;;;4.06;63.38;102435.94;5099252;28;20044;-59
2023/01/26 08:38:49;;;;;;;27.67;13.70;;;;;;;4.06;63.47;102429.78;5104957;28;20105;-60
2023/01/26 08:41:18;;;;;;;25.20;13.68;;;;;;;4.04;64.06;102443.22;5098838;28;20048;-60
2023/01/26 08:43:45;;;;;;;23.15;12.90;;;;;;;4.03;63.38;102435.38;5104978;28;20044;-60
2023/01/26 08:46:13;;;;;;;29.15;14.13;;;;;;;4.01;64.18;102435.53;5103714;28;20111;-60
2023/01/26 08:48:41;;;;;;;25.33;13.23;;;;;;;4.03;63.75;102441.53;5101385;28;20108;-59
2023/01/26 08:51:09;;;;;;;26.23;13.98;;;;;;;4.03;64.13;102432.72;5103422;28;20040;-60
2023/01/26 08:53:38;;;;;;;24.30;12.85;;;;;;;4.00;63.87;102441.81;5101284;28;20071;-60
2023/01/26 08:56:08;;;;;;;25.13;13.65;;;;;;;4.04;63.48;102445.03;5094937;28;20052;-60
2023/01/26 08:58:36;;;;;;;27.40;13.52;;;;;;;4.04;64.18;102448.53;5104389;28;20123;-60
2023/01/26 09:01:05;;;;;;;25.02;13.60;;;;;;;4.04;63.87;102445.88;5100468;28;20086;-60
2023/01/26 09:03:33;;;;;;;27.80;13.88;;;;;;;4.05;63.99;102449.38;5103748;28;20048;-60
2023/01/26 09:06:03;;;;;;;25.60;13.43;;;;;;;4.05;63.36;102446.72;5100889;28;20071;-60
2023/01/26 09:08:31;;;;;;;28.73;13.90;;;;;;;4.05;63.51;102452.88;5104090;28;20362;-60
2023/01/26 09:11:00;;;;;;;27.55;13.77;;;;;;;4.03;63.67;102446.03;5101621;28;20083;-60
2023/01/26 09:13:28;;;;;;;24.80;13.13;;;;;;;4.03;63.45;102449.53;5103448;28;20052;-60
2023/01/26 09:15:56;;;;;;;26.92;13.45;;;;;;;4.05;64.27;102446.72;5103110;28;20063;-60
2023/01/26 09:18:24;;;;;;;25.58;12.57;;;;;;;4.05;63.98;102444.06;5100102;28;20078;-60
2023/01/26 09:20:52;;;;;;;25.65;13.32;;;;;;;4.06;63.89;102445.75;5096222;28;20048;-61
2023/01/26 09:23:20;;;;;;;27.50;13.82;;;;;;;4.09;63.69;102440.13;5103982;28;20143;-61
2023/01/26 09:25:52;;;;;;;30.08;14.50;;;;;;;4.08;63.72;102452.59;5103492;28;20051;-60
2023/01/26 09:28:21;;;;;;;30.20;13.93;;;;;;;4.09;64.11;102445.47;5095445;28;20075;-60
2023/01/26 09:30:49;;;;;;;26.70;13.90;;;;;;;4.08;64.04;102449.94;5101099;28;20417;-60
2023/01/26 09:33:17;;;;;;;24.38;12.70;;;;;;;4.08;64.38;102441.13;5104099;28;20044;-60
2023/01/26 09:35:45;;;;;;;31.10;14.80;;;;;;;4.09;64.43;102451.63;5101867;28;20075;-60
2023/01/26 09:38:13;;;;;;;27.75;14.10;;;;;;;4.10;64.61;102445.31;5103815;28;20056;-60
2023/01/26 09:40:49;;;;;;;25.05;13.90;;;;;;;4.11;64.12;102448.81;5099050;28;20061;-60
2023/01/26 09:43:29;;;;;;;25.98;13.23;;;;;;;4.08;64.09;102446.44;5101731;28;20067;-60
2023/01/26 09:46:05;;;;;;;32.13;15.23;;;;;;;4.10;64.52;102455.97;5102422;28;20070;-60
2023/01/26 09:48:40;;;;;;;32.47;15.35;;;;;;;4.09;65.06;102456.09;5103653;28;20497;-60
2023/01/26 09:51:13;;;;;;;29.35;14.27;;;;;;;4.07;64.56;102452.75;5098814;28;20135;-60
2023/01/26 09:53:47;;;;;;;29.92;14.52;;;;;;;3.98;64.37;102445.59;5102984;28;20091;-60
2023/01/26 09:56:18;;;;;;;33.25;15.73;;;;;;;4.05;64.81;102462.69;5103232;28;20058;-60
2023/01/26 09:58:54;;;;;;;37.95;17.02;;;;;;;4.05;65.31;102458.19;5098743;28;20081;-60
2023/01/26 10:01:29;;;;;;;31.55;14.43;;;;;;;4.04;65.18;102453.84;5092962;28;20048;-60
2023/01/26 10:04:05;;;;;;;32.90;14.63;;;;;;;4.05;64.71;102457.34;5087007;28;20048;-60
2023/01/26 10:06:33;;;;;;;38.47;17.67;;;;;;;4.00;65.25;102446.28;5097233;28;20044;-60
2023/01/26 10:09:08;;;;;;;39.33;16.77;;;;;;;4.04;65.38;102453.03;5102566;28;20044;-60
2023/01/26 10:11:40;;;;;;;43.95;17.10;;;;;;;4.04;65.85;102453.03;5093658;28;20048;-60
2023/01/26 10:14:14;;;;;;;29.80;15.05;;;;;;;4.03;65.83;102456.66;5097153;28;20068;-60
2023/01/26 10:16:45;;;;;;;37.53;16.13;;;;;;;4.06;66.17;102459.03;5100727;28;20055;-60
2023/01/26 10:19:20;;;;;;;32.35;15.40;;;;;;;4.06;66.47;102457.22;5102822;28;20613;-60
2023/01/26 10:21:51;;;;;;;36.75;14.65;;;;;;;3.96;66.26;102435.09;5102016;28;20044;-60
2023/01/26 10:24:22;;;;;;;42.33;16.98;;;;;;;4.02;65.95;102457.63;5099514;28;20371;-60
2023/01/26 10:26:53;;;;;;;35.97;17.40;;;;;;;4.02;66.42;102447.84;5099675;28;20047;-60
2023/01/26 10:29:25;;;;;;;38.85;17.50;;;;;;;4.01;66.48;102453.31;5101721;28;20047;-61
2023/01/26 10:31:53;;;;;;;36.72;16.42;;;;;;;4.00;66.81;102455.13;5099736;28;20059;-60
2023/01/26 10:34:24;;;;;;;34.65;16.55;;;;;;;4.01;66.24;102451.47;5099115;28;20078;-60
2023/01/26 10:37:16;;;;;;;36.63;17.75;;;;;;;4.02;66.46;102457.63;5092454;28;20050;-60
2023/01/26 10:39:57;;;;;;;39.47;19.35;;;;;;;4.04;66.59;102448.53;5099944;28;20079;-60
2023/01/26 10:42:28;;;;;;;43.40;17.20;;;;;;;4.01;66.73;102445.31;5101546;28;20044;-60
2023/01/26 10:45:00;;;;;;;40.88;18.70;;;;;;;4.04;67.32;102451.19;5101073;28;20466;-60
2023/01/26 10:47:29;;;;;;;42.53;17.48;;;;;;;4.03;66.86;102454.00;5100255;28;20044;-60
2023/01/26 10:50:19;;;;;;;37.83;16.52;;;;;;;4.01;66.93;102459.47;5102615;28;20048;-60
2023/01/26 10:52:58;;;;;;;45.08;17.33;;;;;;;4.01;66.90;102469.25;5097077;28;20509;-60
2023/01/26 10:55:25;;;;;;;42.13;18.08;;;;;;;4.02;67.38;102470.94;5101236;28;20112;-60
2023/01/26 10:57:53;;;;;;;39.85;18.70;;;;;;;4.01;67.57;102470.09;5095058;28;20078;-60
2023/01/26 11:00:28;;;;;;;39.95;17.38;;;;;;;4.00;66.96;102471.06;5101282;28;20155;-60
2023/01/26 11:03:04;;;;;;;40.58;17.95;;;;;;;4.00;67.10;102473.75;5102890;28;20048;-60
2023/01/26 11:05:32;;;;;;;39.33;17.45;;;;;;;4.00;67.60;102459.59;5101103;28;20044;-60
2023/01/26 11:08:01;;;;;;;43.80;17.70;;;;;;;4.00;68.35;102462.25;5101756;28;20044;-58
2023/01/26 11:10:32;;;;;;;43.08;18.02;;;;;;;3.92;69.26;102460.28;5098812;28;20048;-61
2023/01/26 11:13:12;;;;;;;50.05;17.65;;;;;;;3.98;68.51;102451.75;5092550;28;20378;-63
2023/01/26 11:15:44;;;;;;;45.17;17.88;;;;;;;4.12;68.80;102448.69;5100775;28;20043;-62
2023/01/26 11:18:21;;;;;;;45.92;18.65;;;;;;;4.25;68.41;102454.56;5100484;28;20078;-63
2023/01/26 11:20:53;;;;;;;43.20;18.75;;;;;;;4.43;67.18;102446.69;4750536;28;10000594;-62
2023/01/26 11:23:34;;;;;;;39.30;17.65;;;;;;;4.65;67.15;102444.69;5109318;28;20051;-62
2023/01/26 11:26:20;;;;;;;40.72;18.15;;;;;;;4.83;65.96;102438.47;5101182;28;20080;-62
2023/01/26 11:29:00;;;;;;;46.47;17.57;;;;;;;5.05;65.42;102447.94;5101476;28;20044;-62
2023/01/26 11:31:41;;;;;;;39.10;17.10;;;;;;;5.25;64.80;102446.00;5098622;28;20495;-62
2023/01/26 11:34:24;;;;;;;42.90;17.20;;;;;;;5.45;64.47;102449.41;5095581;28;20060;-62
2023/01/26 11:37:05;;;;;;;42.97;18.77;;;;;;;5.54;64.13;102451.16;5104303;28;20494;-62
2023/01/26 11:39:44;;;;;;;48.50;18.42;;;;;;;5.63;64.11;102442.28;5100232;28;20078;-62
2023/01/26 11:42:23;;;;;;;48.00;18.23;;;;;;;5.73;63.90;102445.72;5095193;28;20087;-62
2023/01/26 11:45:04;;;;;;;37.97;17.00;;;;;;;5.79;63.90;102449.59;5094345;28;20052;-62
2023/01/26 11:47:47;;;;;;;42.08;19.05;;;;;;;5.82;63.89;102447.47;5098837;28;20135;-61
2023/01/26 11:50:26;;;;;;;45.38;18.92;;;;;;;5.90;63.78;102444.09;5099182;28;20098;-62
2023/01/26 11:53:18;;;;;;;34.92;17.67;;;;;;;5.92;63.55;102444.75;5101774;28;20056;-62
2023/01/26 11:56:02;;;;;;;44.88;18.27;;;;;;;5.94;64.18;102429.44;5100792;28;20055;-62
2023/01/26 11:58:34;;;;;;;39.47;16.70;;;;;;;5.98;63.73;102435.31;5096775;28;20120;-62
2023/01/26 12:01:06;;;;;;;39.85;16.73;;;;;;;6.02;64.02;102426.00;5098451;28;20099;-62
2023/01/26 12:03:42;;;;;;;37.13;17.50;;;;;;;6.08;63.35;102415.56;5098593;28;20059;-62
2023/01/26 12:06:17;;;;;;;47.47;17.90;;;;;;;6.11;63.31;102419.75;5101283;28;20079;-62
2023/01/26 12:08:51;;;;;;;47.63;17.25;;;;;;;6.13;63.41;102407.09;5095524;28;20048;-62
2023/01/26 12:11:26;;;;;;;39.45;15.25;;;;;;;6.14;63.91;102409.59;5101442;28;20052;-62
2023/01/26 12:14:07;;;;;;;38.05;16.33;;;;;;;6.20;63.25;102417.00;5098992;28;20070;-62
2023/01/26 12:16:43;;;;;;;40.30;16.48;;;;;;;6.25;63.20;102416.53;5096190;28;20134;-62
2023/01/26 12:19:28;;;;;;;39.47;15.60;;;;;;;6.31;62.46;102407.91;5096414;28;20044;-62
2023/01/26 12:22:02;;;;;;;36.83;16.48;;;;;;;6.32;63.69;102412.25;5096672;28;20496;-62